Time;durP1;ratioP1;P1;durP2;ratioP2;P2;SDS_P1;SDS_P2;PMS_P1;PMS_P2;Temp;Humidity;BMP_temperature;BMP_pressure;BME280_temperature;BME280_humidity;BME280_pressure;Samples;Min_cycle;Max_cycle;Signal;HPM_P1;HPM_P2
2023/07/12 00:01:46;;;;;;;0.67;0.60;;;;;;;20.75;63.07;99456.50;5094028;28;20032;-62
2023/07/12 00:04:15;;;;;;;3.80;1.48;;;;;;;20.75;63.19;99446.13;5093529;28;20064;-62
2023/07/12 00:06:44;;;;;;;0.50;0.50;;;;;;;20.72;63.30;99446.25;5093524;28;20048;-62
2023/07/12 00:09:15;;;;;;;2.30;0.90;;;;;;;20.66;63.44;99455.16;5093588;28;20040;-62
2023/07/12 00:11:43;;;;;;;0.82;0.82;;;;;;;20.69;63.64;99454.16;5094342;28;20044;-62
2023/07/12 00:14:12;;;;;;;1.67;1.37;;;;;;;20.70;63.31;99448.09;5097616;28;20444;-62
2023/07/12 00:16:42;;;;;;;0.75;0.75;;;;;;;20.67;63.42;99449.06;5097390;28;20052;-62
2023/07/12 00:19:14;;;;;;;;;;;;;;;20.71;63.30;99444.56;5097728;28;20517;-62
2023/07/12 00:21:43;;;;;;;0.65;0.65;;;;;;;20.69;63.27;99436.00;5097540;28;19920;-62
2023/07/12 00:24:12;;;;;;;3.03;1.10;;;;;;;20.69;63.35;99441.19;5097239;28;20052;-62
2023/07/12 00:26:40;;;;;;;0.75;0.75;;;;;;;20.72;63.28;99435.88;5097187;28;20036;-62
2023/07/12 00:29:09;;;;;;;0.87;0.87;;;;;;;20.73;63.22;99436.72;5096337;28;20461;-62
2023/07/12 00:31:40;;;;;;;0.95;0.82;;;;;;;20.72;63.41;99425.50;5097490;28;20268;-62
2023/07/12 00:34:08;;;;;;;1.17;1.02;;;;;;;20.75;63.05;99424.53;5097030;28;20524;-62
2023/07/12 00:36:39;;;;;;;1.00;0.82;;;;;;;20.83;63.11;99432.81;5097068;28;20032;-62
2023/07/12 00:39:08;;;;;;;0.63;0.63;;;;;;;20.78;62.87;99427.81;5097356;28;20135;-62
2023/07/12 00:42:03;;;;;;;0.93;0.93;;;;;;;20.69;63.27;99426.47;5096056;28;20157;-61
2023/07/12 00:44:37;;;;;;;0.73;0.70;;;;;;;20.70;62.92;99416.97;5096865;28;20048;-62
2023/07/12 00:47:06;;;;;;;1.50;0.98;;;;;;;20.65;63.18;99414.56;5096005;28;20123;-60
2023/07/12 00:49:35;;;;;;;1.00;0.90;;;;;;;20.64;63.14;99406.84;5096815;28;20067;-60
2023/07/12 00:52:12;;;;;;;0.77;0.60;;;;;;;20.62;63.22;99403.47;5097020;28;20040;-62
2023/07/12 00:54:51;;;;;;;2.15;1.52;;;;;;;20.55;63.24;99402.09;5096601;28;20040;-62
2023/07/12 00:57:20;;;;;;;1.23;1.05;;;;;;;20.55;63.28;99404.69;5097102;28;20501;-62
2023/07/12 00:59:50;;;;;;;0.60;0.60;;;;;;;20.50;63.47;99398.84;5096684;28;20512;-62
2023/07/12 01:02:22;;;;;;;2.75;1.27;;;;;;;20.46;63.60;99405.09;5096596;28;20040;-62
2023/07/12 01:04:57;;;;;;;2.47;0.90;;;;;;;20.46;63.59;99397.31;5096807;28;20064;-62
2023/07/12 01:07:30;;;;;;;1.02;0.95;;;;;;;20.42;63.40;99390.59;5096828;28;20064;-62
2023/07/12 01:09:59;;;;;;;1.55;1.13;;;;;;;20.46;63.43;99381.78;5096504;28;20098;-62
2023/07/12 01:12:28;;;;;;;0.57;0.57;;;;;;;20.48;63.17;99379.94;5096466;28;20037;-62
2023/07/12 01:14:58;;;;;;;0.50;0.50;;;;;;;20.42;63.24;99375.06;5096208;28;20028;-62
2023/07/12 01:17:28;;;;;;;0.70;0.70;;;;;;;20.42;63.35;99375.06;5096382;28;20044;-62
2023/07/12 01:19:57;;;;;;;0.60;0.60;;;;;;;20.43;63.26;99379.31;5096323;28;20044;-62
2023/07/12 01:22:28;;;;;;;;;;;;;;;20.42;63.10;99354.31;5096253;28;20056;-62
2023/07/12 01:24:56;;;;;;;0.70;0.70;;;;;;;20.48;63.25;99354.00;5095457;28;19935;-61
2023/07/12 01:27:26;;;;;;;0.90;0.90;;;;;;;20.55;63.30;99355.41;5096097;28;20044;-60
2023/07/12 01:29:56;;;;;;;1.48;1.30;;;;;;;20.56;63.35;99346.72;5096132;28;20044;-62
2023/07/12 01:32:28;;;;;;;0.60;0.60;;;;;;;20.50;63.11;99347.00;5096128;28;20048;-60
2023/07/12 01:34:57;;;;;;;0.88;0.75;;;;;;;20.51;63.83;99361.66;5094727;28;20052;-61
2023/07/12 01:37:26;;;;;;;1.95;1.42;;;;;;;20.47;63.59;99357.50;5096205;28;20044;-61
2023/07/12 01:39:56;;;;;;;1.00;0.88;;;;;;;20.51;63.35;99356.47;5095828;28;20040;-62
2023/07/12 01:42:25;;;;;;;1.17;1.08;;;;;;;20.47;63.18;99349.72;5094725;28;20127;-62
2023/07/12 01:44:54;;;;;;;0.40;0.40;;;;;;;20.50;63.25;99347.00;5096061;28;20532;-62
2023/07/12 01:47:23;;;;;;;1.92;1.20;;;;;;;20.54;62.90;99340.75;5094413;28;20804;-62
2023/07/12 01:49:52;;;;;;;0.70;0.70;;;;;;;20.43;62.94;99345.59;5095637;28;20044;-62
2023/07/12 01:52:21;;;;;;;0.82;0.82;;;;;;;20.40;62.84;99345.72;5094421;28;20047;-62
2023/07/12 01:54:50;;;;;;;2.30;0.90;;;;;;;20.38;62.98;99347.56;5095480;28;20131;-61
2023/07/12 01:57:21;;;;;;;1.38;0.93;;;;;;;20.41;63.08;99344.84;5095782;28;20040;-62
2023/07/12 01:59:51;;;;;;;1.23;0.88;;;;;;;20.43;62.36;99345.59;5096160;28;20446;-61
2023/07/12 02:02:20;;;;;;;1.40;0.90;;;;;;;20.44;62.81;99349.88;5095364;28;20044;-61
2023/07/12 02:04:49;;;;;;;0.65;0.65;;;;;;;20.41;63.19;99337.91;5095401;28;20044;-61
2023/07/12 02:07:17;;;;;;;0.97;0.90;;;;;;;20.32;63.00;99327.97;5095254;28;20032;-61
2023/07/12 02:10:13;;;;;;;0.80;0.80;;;;;;;20.32;63.03;99333.16;5094981;28;20474;-61
2023/07/12 02:12:44;;;;;;;1.10;0.85;;;;;;;20.33;63.11;99339.16;5094096;28;20101;-61
2023/07/12 02:15:15;;;;;;;0.88;0.80;;;;;;;20.30;63.13;99334.13;5095131;28;20478;-61
2023/07/12 02:17:44;;;;;;;1.63;1.35;;;;;;;20.28;62.92;99328.16;5095064;28;20109;-61
2023/07/12 02:20:16;;;;;;;0.70;0.68;;;;;;;20.25;63.21;99336.09;5095648;28;20464;-62
2023/07/12 02:22:47;;;;;;;0.73;0.70;;;;;;;20.29;63.11;99338.47;5094757;28;20055;-61
2023/07/12 02:25:20;;;;;;;0.63;0.63;;;;;;;20.33;62.84;99341.75;5095030;28;20486;-61
2023/07/12 02:27:52;;;;;;;1.40;1.27;;;;;;;20.35;62.76;99342.50;5094961;28;20052;-61
2023/07/12 02:30:25;;;;;;;0.52;0.52;;;;;;;20.42;63.31;99334.38;5093685;28;20097;-62
2023/07/12 02:32:55;;;;;;;2.05;0.98;;;;;;;20.48;62.86;99343.63;5093965;28;20056;-62
2023/07/12 02:35:29;;;;;;;0.95;0.95;;;;;;;20.46;62.62;99341.13;5094620;28;20567;-61
2023/07/12 02:38:00;;;;;;;1.42;1.00;;;;;;;20.49;62.48;99334.97;5094981;28;20123;-61
2023/07/12 02:40:30;;;;;;;1.65;0.88;;;;;;;20.53;62.30;99332.16;5094723;28;20133;-61
2023/07/12 02:43:00;;;;;;;0.50;0.50;;;;;;;20.56;61.90;99331.16;5094982;28;20055;-61
2023/07/12 02:45:29;;;;;;;0.93;0.80;;;;;;;20.62;61.89;99326.53;5094883;28;20130;-61
2023/07/12 02:47:58;;;;;;;0.73;0.73;;;;;;;20.62;62.27;99323.09;5094448;28;20066;-61
2023/07/12 02:50:27;;;;;;;0.80;0.80;;;;;;;20.62;62.50;99315.31;5094544;28;20047;-62
2023/07/12 02:52:56;;;;;;;1.55;1.15;;;;;;;20.63;62.23;99315.25;5094380;28;20275;-61
2023/07/12 02:55:25;;;;;;;0.52;0.50;;;;;;;20.59;62.84;99321.47;5094596;28;20508;-62
2023/07/12 02:57:54;;;;;;;1.00;1.00;;;;;;;20.52;63.56;99324.44;5094340;28;20525;-62
2023/07/12 03:00:24;;;;;;;1.13;0.93;;;;;;;20.46;64.02;99324.72;5094344;28;20043;-61
2023/07/12 03:02:53;;;;;;;0.60;0.60;;;;;;;20.45;64.39;99333.41;5094403;28;20562;-61
2023/07/12 03:05:22;;;;;;;1.07;0.77;;;;;;;20.52;63.82;99332.22;5094518;28;20047;-61
2023/07/12 03:07:53;;;;;;;0.70;0.70;;;;;;;20.63;63.66;99337.75;5094231;28;20322;-61
2023/07/12 03:10:22;;;;;;;0.98;0.88;;;;;;;20.65;63.32;99354.06;5094429;28;20043;-61
2023/07/12 03:12:51;;;;;;;1.17;0.93;;;;;;;20.67;62.50;99360.03;5094113;28;20043;-62
2023/07/12 03:15:20;;;;;;;0.60;0.60;;;;;;;20.72;62.21;99376.22;5094011;28;20058;-61
2023/07/12 03:17:51;;;;;;;0.82;0.70;;;;;;;20.83;62.25;99366.16;5094666;28;20040;-61
2023/07/12 03:20:20;;;;;;;0.60;0.60;;;;;;;20.92;62.00;99359.72;5094344;28;20512;-62
2023/07/12 03:22:50;;;;;;;1.00;0.90;;;;;;;20.99;62.00;99354.16;5092496;28;20402;-61
2023/07/12 03:25:19;;;;;;;1.27;0.82;;;;;;;21.02;61.94;99338.41;5093911;28;20040;-62
2023/07/12 03:27:48;;;;;;;2.03;1.00;;;;;;;21.05;61.16;99325.34;5094209;28;20515;-62
2023/07/12 03:30:17;;;;;;;0.70;0.70;;;;;;;21.04;60.88;99323.59;5093792;28;20049;-62
2023/07/12 03:32:46;;;;;;;1.65;1.05;;;;;;;21.07;60.74;99313.13;5094239;28;20042;-62
2023/07/12 03:35:17;;;;;;;0.88;0.80;;;;;;;20.99;61.69;99320.44;5093968;28;20073;-61
2023/07/12 03:37:46;;;;;;;1.63;1.15;;;;;;;20.95;62.39;99333.59;5093772;28;20062;-62
2023/07/12 03:40:15;;;;;;;1.55;1.27;;;;;;;20.89;63.24;99329.56;5094212;28;20405;-62
2023/07/12 03:42:43;;;;;;;0.55;0.55;;;;;;;20.96;63.37;99348.25;5093996;28;20481;-62
2023/07/12 03:45:13;;;;;;;1.45;0.90;;;;;;;20.94;64.38;99350.94;5093643;28;20502;-61
2023/07/12 03:47:41;;;;;;;0.68;0.68;;;;;;;20.97;64.65;99343.00;5093104;28;20042;-61
2023/07/12 03:50:11;;;;;;;0.73;0.73;;;;;;;20.98;63.20;99344.69;5093625;28;20115;-61
2023/07/12 03:52:41;;;;;;;0.50;0.50;;;;;;;21.05;62.30;99345.25;5093576;28;20497;-62
2023/07/12 03:55:10;;;;;;;1.48;0.93;;;;;;;21.10;62.15;99341.53;5093813;28;20048;-62
2023/07/12 03:57:41;;;;;;;8.43;0.85;;;;;;;21.11;62.67;99330.25;5093569;28;20130;-62
2023/07/12 04:00:12;;;;;;;0.70;0.70;;;;;;;21.17;62.66;99316.94;5093829;28;20056;-62
2023/07/12 04:02:41;;;;;;;0.85;0.77;;;;;;;21.21;61.80;99321.06;5093620;28;20037;-62
2023/07/12 04:05:10;;;;;;;0.60;0.60;;;;;;;21.25;62.34;99333.00;5093737;28;20040;-62
2023/07/12 04:07:41;;;;;;;1.42;1.33;;;;;;;21.23;62.06;99360.78;5093782;28;20032;-62
2023/07/12 04:10:10;;;;;;;0.50;0.50;;;;;;;21.20;61.82;99430.19;5093601;28;20549;-61
2023/07/12 04:12:39;;;;;;;2.10;1.58;;;;;;;21.13;61.34;99454.75;5093736;28;20044;-61
2023/07/12 04:15:09;;;;;;;1.83;1.17;;;;;;;20.73;64.51;99396.06;5093437;28;20050;-61
2023/07/12 04:17:38;;;;;;;0.95;0.93;;;;;;;20.49;67.49;99379.03;5093455;28;20051;-62
2023/07/12 04:20:08;;;;;;;1.30;1.20;;;;;;;20.44;70.31;99388.78;5093362;28;20044;-62
2023/07/12 04:22:37;;;;;;;1.52;1.42;;;;;;;20.28;72.19;99434.41;5092944;28;20273;-63
2023/07/12 04:25:08;;;;;;;2.27;1.23;;;;;;;20.04;73.58;99493.31;5093409;28;20086;-62
2023/07/12 04:27:39;;;;;;;1.42;1.17;;;;;;;19.89;74.27;99489.59;5093627;28;20062;-62
2023/07/12 04:30:09;;;;;;;2.70;1.25;;;;;;;19.89;74.94;99455.94;5093350;28;20374;-62
2023/07/12 04:32:37;;;;;;;1.38;1.27;;;;;;;19.84;75.82;99437.16;5093267;28;20052;-62
2023/07/12 04:35:07;;;;;;;1.20;1.10;;;;;;;19.77;76.19;99388.28;5093486;28;20391;-63
2023/07/12 04:37:36;;;;;;;1.45;1.35;;;;;;;19.73;76.92;99384.97;5093096;28;20514;-62
2023/07/12 04:40:07;;;;;;;0.93;0.77;;;;;;;19.72;77.42;99392.81;5093174;28;20047;-62
2023/07/12 04:42:36;;;;;;;1.33;1.23;;;;;;;19.75;78.09;99440.13;5093098;28;20082;-62
2023/07/12 04:45:06;;;;;;;1.33;1.23;;;;;;;19.71;78.50;99472.25;5093439;28;20490;-62
2023/07/12 04:47:35;;;;;;;1.17;1.08;;;;;;;19.61;78.95;99473.53;5093092;28;20048;-62
2023/07/12 04:50:04;;;;;;;0.63;0.60;;;;;;;19.49;79.26;99453.31;5093446;28;20043;-62
2023/07/12 04:52:33;;;;;;;1.05;0.98;;;;;;;19.54;79.04;99435.84;5092982;28;20090;-63
2023/07/12 04:55:05;;;;;;;1.67;1.58;;;;;;;19.60;78.94;99456.31;5093035;28;20494;-62
2023/07/12 04:57:35;;;;;;;0.80;0.80;;;;;;;19.53;79.17;99460.03;5093039;28;20119;-62
2023/07/12 05:00:05;;;;;;;0.95;0.90;;;;;;;19.51;79.18;99446.31;5095847;28;20058;-62
2023/07/12 05:02:34;;;;;;;1.55;1.38;;;;;;;19.55;79.29;99429.78;5096878;28;20512;-62
2023/07/12 05:05:03;;;;;;;1.73;1.00;;;;;;;19.59;79.42;99431.31;5096536;28;20127;-62
2023/07/12 05:07:31;;;;;;;0.70;0.70;;;;;;;19.72;79.61;99423.91;5096526;28;20119;-62
2023/07/12 05:10:00;;;;;;;2.33;1.37;;;;;;;19.68;79.50;99435.25;5096427;28;20106;-62
2023/07/12 05:12:29;;;;;;;1.17;1.07;;;;;;;19.68;79.57;99433.53;5096709;28;20047;-63
2023/07/12 05:14:59;;;;;;;2.00;1.67;;;;;;;19.69;79.48;99440.41;5096410;28;20080;-62
2023/07/12 05:17:32;;;;;;;1.02;0.82;;;;;;;19.72;79.47;99445.47;5096626;28;20044;-62
2023/07/12 05:20:00;;;;;;;1.75;1.48;;;;;;;19.86;79.53;99427.59;5096570;28;20050;-62
2023/07/12 05:22:29;;;;;;;1.23;0.98;;;;;;;19.95;79.54;99427.19;5095985;28;20068;-62
2023/07/12 05:24:59;;;;;;;1.13;1.03;;;;;;;20.03;79.69;99419.09;5096292;28;20048;-62
2023/07/12 05:27:28;;;;;;;2.10;1.50;;;;;;;20.06;79.45;99414.59;5096578;28;20287;-62
2023/07/12 05:29:57;;;;;;;3.58;1.75;;;;;;;20.11;79.30;99416.16;5096053;28;20044;-62
2023/07/12 05:32:27;;;;;;;0.73;0.73;;;;;;;20.06;78.86;99404.22;5096355;28;20063;-62
2023/07/12 05:34:56;;;;;;;1.23;0.88;;;;;;;20.11;79.04;99395.44;5095966;28;20509;-62
2023/07/12 05:37:25;;;;;;;1.33;1.23;;;;;;;20.28;79.00;99418.88;5095853;28;20048;-62
2023/07/12 05:39:59;;;;;;;0.70;0.70;;;;;;;20.40;78.56;99423.50;5095847;28;20044;-62
2023/07/12 05:42:28;;;;;;;2.10;1.40;;;;;;;20.54;77.85;99419.38;5095851;28;20043;-62
2023/07/12 05:44:57;;;;;;;0.75;0.75;;;;;;;20.62;77.28;99413.84;5095747;28;20071;-62
2023/07/12 05:47:27;;;;;;;0.73;0.70;;;;;;;20.77;77.04;99412.31;5096013;28;20094;-62
2023/07/12 05:49:57;;;;;;;1.83;1.50;;;;;;;20.99;76.71;99408.66;5095709;28;20048;-62
2023/07/12 05:52:27;;;;;;;0.70;0.70;;;;;;;21.15;76.39;99409.63;5095390;28;20478;-63
2023/07/12 05:54:56;;;;;;;1.15;0.82;;;;;;;21.12;76.09;99399.38;5101284;28;20043;-62
2023/07/12 05:57:25;;;;;;;1.20;1.10;;;;;;;21.04;76.02;99393.69;5108419;28;20043;-61
2023/07/12 05:59:54;;;;;;;1.27;1.15;;;;;;;21.03;76.06;99384.22;5110800;28;20040;-61
2023/07/12 06:02:23;;;;;;;1.10;1.00;;;;;;;21.15;75.72;99381.06;5097812;28;20055;-62
2023/07/12 06:04:54;;;;;;;6.40;1.30;;;;;;;21.42;75.41;99370.25;5095393;28;20075;-61
2023/07/12 06:07:22;;;;;;;1.33;1.02;;;;;;;21.57;75.21;99359.09;5095363;28;20043;-61
2023/07/12 06:09:51;;;;;;;6.45;2.05;;;;;;;21.71;74.94;99335.84;5095330;28;20432;-62
2023/07/12 06:12:20;;;;;;;0.57;0.57;;;;;;;21.81;74.65;99311.09;5110281;28;20489;-66
2023/07/12 06:14:49;;;;;;;1.20;0.77;;;;;;;21.79;74.95;99318.09;5095525;28;20042;-61
2023/07/12 06:17:18;;;;;;;0.73;0.73;;;;;;;21.80;74.87;99324.97;5103273;28;20044;-62
2023/07/12 06:19:46;;;;;;;2.10;0.82;;;;;;;21.84;75.22;99326.50;5095394;28;20328;-62
2023/07/12 06:22:17;;;;;;;1.50;1.40;;;;;;;21.88;75.25;99322.88;5095439;28;20389;-63
2023/07/12 06:24:45;;;;;;;1.13;1.02;;;;;;;21.98;75.62;99313.63;5115399;28;20078;-62
2023/07/12 06:27:14;;;;;;;2.27;1.27;;;;;;;22.22;75.37;99301.94;5115253;28;20062;-62
2023/07/12 06:29:45;;;;;;;2.22;1.70;;;;;;;22.45;75.10;99304.13;5115169;28;20291;-61
2023/07/12 06:32:15;;;;;;;1.10;1.05;;;;;;;22.61;74.45;99302.38;5113638;28;20130;-63
2023/07/12 06:34:43;;;;;;;0.60;0.60;;;;;;;22.64;74.30;99304.81;5094682;28;20037;-62
2023/07/12 06:37:12;;;;;;;2.25;1.70;;;;;;;22.76;73.80;99299.84;5094738;28;20036;-62
2023/07/12 06:39:43;;;;;;;1.20;1.08;;;;;;;22.95;73.56;99300.47;5094601;28;20131;-62
2023/07/12 06:42:11;;;;;;;1.20;1.02;;;;;;;22.93;73.19;99281.50;5094130;28;20040;-63
2023/07/12 06:44:40;;;;;;;1.17;0.87;;;;;;;22.84;72.63;99274.25;5114526;28;20036;-62
2023/07/12 06:47:09;;;;;;;1.75;1.05;;;;;;;22.81;72.58;99257.03;5114947;28;20036;-63
2023/07/12 06:49:38;;;;;;;1.33;1.17;;;;;;;22.77;72.30;99262.50;5100842;28;20062;-63
2023/07/12 06:52:10;;;;;;;0.80;0.80;;;;;;;22.76;72.63;99260.81;5101557;28;20800;-62
2023/07/12 06:54:39;;;;;;;1.13;1.02;;;;;;;22.74;72.62;99273.06;5094491;28;20750;-62
2023/07/12 06:57:09;;;;;;;1.10;0.85;;;;;;;22.79;72.94;99268.47;5094287;28;20122;-63
2023/07/12 06:59:38;;;;;;;0.60;0.60;;;;;;;22.87;72.82;99268.84;5094393;28;20048;-62
2023/07/12 07:02:10;;;;;;;1.02;0.98;;;;;;;22.96;72.82;99268.34;5094101;28;20036;-62
2023/07/12 07:04:39;;;;;;;0.95;0.85;;;;;;;22.97;72.26;99270.84;5094231;28;20043;-62
2023/07/12 07:07:08;;;;;;;1.60;1.03;;;;;;;23.17;71.73;99287.91;5094552;28;20405;-62
2023/07/12 07:09:38;;;;;;;2.20;1.13;;;;;;;23.43;71.16;99283.78;5094157;28;20111;-62
2023/07/12 07:12:10;;;;;;;0.95;0.85;;;;;;;23.49;70.75;99279.06;5093976;28;20131;-62
2023/07/12 07:14:40;;;;;;;2.38;1.63;;;;;;;23.53;70.96;99283.16;5094397;28;20401;-62
2023/07/12 07:17:08;;;;;;;0.60;0.60;;;;;;;23.57;71.13;99291.63;5094115;28;20040;-62
2023/07/12 07:19:37;;;;;;;0.77;0.73;;;;;;;23.53;71.18;99306.63;5094347;28;20393;-62
2023/07/12 07:22:07;;;;;;;1.00;0.77;;;;;;;23.50;71.13;99317.22;5093240;28;21060;-62
2023/07/12 07:24:36;;;;;;;1.10;1.00;;;;;;;23.39;71.79;99319.63;5093925;28;20048;-61
2023/07/12 07:27:06;;;;;;;0.60;0.60;;;;;;;23.35;71.61;99318.09;5094185;28;20481;-62
2023/07/12 07:29:36;;;;;;;0.80;0.80;;;;;;;23.27;71.39;99321.13;5093875;28;20276;-62
2023/07/12 07:32:06;;;;;;;2.97;0.95;;;;;;;23.26;71.11;99313.41;5093871;28;20048;-62
2023/07/12 07:34:36;;;;;;;0.80;0.80;;;;;;;23.21;71.01;99302.41;5104253;28;20059;-62
2023/07/12 07:37:05;;;;;;;0.67;0.67;;;;;;;23.21;70.77;99292.84;5093024;28;20095;-62
2023/07/12 07:39:34;;;;;;;0.80;0.80;;;;;;;23.18;71.04;99294.78;5094249;28;20691;-62
2023/07/12 07:42:04;;;;;;;1.55;1.25;;;;;;;23.15;71.33;99297.59;5094055;28;20051;-62
2023/07/12 07:44:33;;;;;;;;;;;;;;;23.18;71.51;99306.03;5098414;28;20024;-62
2023/07/12 07:47:04;;;;;;;;;;;;;;;23.19;71.86;99317.31;5093625;28;20452;-62
2023/07/12 07:49:33;;;;;;;2.95;2.10;;;;;;;23.15;72.19;99311.44;5094151;28;20327;-62
2023/07/12 07:52:02;;;;;;;1.65;1.33;;;;;;;23.19;72.35;99310.34;5093547;28;20032;-62
2023/07/12 07:54:31;;;;;;;2.28;0.93;;;;;;;23.32;72.34;99315.69;5093567;28;20047;-62
2023/07/12 07:57:00;;;;;;;1.05;0.90;;;;;;;23.52;72.44;99319.72;5112889;28;20048;-62
2023/07/12 07:59:29;;;;;;;0.98;0.88;;;;;;;23.70;72.29;99329.91;5113837;28;20039;-63
2023/07/12 08:01:58;;;;;;;1.33;1.23;;;;;;;23.73;72.05;99319.28;5111041;28;20039;-62
2023/07/12 08:04:31;;;;;;;2.63;1.08;;;;;;;23.81;71.72;99327.50;5093524;28;20056;-62
2023/07/12 08:07:00;;;;;;;1.05;0.95;;;;;;;23.80;71.42;99320.59;5093765;28;20048;-62
2023/07/12 08:09:29;;;;;;;5.50;1.70;;;;;;;23.99;70.90;99305.50;5093378;28;20119;-62
2023/07/12 08:12:01;;;;;;;1.90;1.58;;;;;;;24.38;70.56;99314.41;5093433;28;20083;-61
2023/07/12 08:14:36;;;;;;;0.80;0.75;;;;;;;24.55;69.35;99325.47;5093656;28;20047;-63
2023/07/12 08:17:05;;;;;;;1.50;1.13;;;;;;;24.62;68.23;99325.91;5093720;28;20033;-62
2023/07/12 08:19:36;;;;;;;1.05;1.00;;;;;;;24.65;67.86;99320.50;5093150;28;20051;-62
2023/07/12 08:22:05;;;;;;;1.27;1.17;;;;;;;24.70;67.34;99326.28;5093332;28;20078;-62
2023/07/12 08:24:33;;;;;;;2.20;1.42;;;;;;;24.74;67.19;99324.31;5092267;28;20056;-62
2023/07/12 08:27:02;;;;;;;0.88;0.82;;;;;;;24.77;66.51;99309.31;5111112;28;20089;-62
2023/07/12 08:29:36;;;;;;;1.15;1.00;;;;;;;24.80;66.13;99306.50;5113931;28;20447;-62
2023/07/12 08:32:06;;;;;;;0.70;0.70;;;;;;;24.85;66.11;99301.84;5113281;28;20046;-63
2023/07/12 08:34:37;;;;;;;1.33;0.77;;;;;;;24.85;66.08;99291.38;5117482;28;20131;-62
2023/07/12 08:37:06;;;;;;;0.88;0.82;;;;;;;24.79;65.17;99283.09;5117747;28;20040;-62
2023/07/12 08:39:35;;;;;;;1.58;1.13;;;;;;;24.74;64.81;99288.59;5111514;28;20070;-63
2023/07/12 08:42:12;;;;;;;0.65;0.65;;;;;;;24.72;64.95;99290.47;5103221;28;20393;-63
2023/07/12 08:44:41;;;;;;;1.63;1.35;;;;;;;24.71;65.00;99286.19;5102411;28;20076;-62
2023/07/12 08:47:14;;;;;;;;;;;;;;;24.65;64.98;99291.78;5097336;28;20130;-62
2023/07/12 08:49:45;;;;;;;0.55;0.55;;;;;;;24.64;65.04;99292.75;5097023;28;19920;-62
2023/07/12 08:52:19;;;;;;;1.05;0.98;;;;;;;24.61;65.01;99278.13;5096662;28;20036;-62
2023/07/12 08:54:48;;;;;;;0.70;0.63;;;;;;;24.59;64.96;99269.53;5097074;28;20098;-62
2023/07/12 08:57:19;;;;;;;1.13;1.02;;;;;;;24.56;65.29;99269.75;5096649;28;20047;-62
2023/07/12 08:59:54;;;;;;;0.88;0.82;;;;;;;24.58;65.39;99274.84;5096532;28;20055;-61
2023/07/12 09:02:25;;;;;;;1.35;1.25;;;;;;;24.60;65.95;99275.59;5103306;28;20510;-62
2023/07/12 09:04:59;;;;;;;1.13;0.95;;;;;;;24.62;65.97;99278.94;5096620;28;20513;-62
2023/07/12 09:07:31;;;;;;;1.20;0.85;;;;;;;24.58;65.93;99277.47;5096459;28;20098;-62
2023/07/12 09:10:01;;;;;;;1.40;1.00;;;;;;;24.53;66.12;99269.09;5096368;28;20268;-62
2023/07/12 09:12:34;;;;;;;0.63;0.60;;;;;;;24.50;65.66;99264.06;5096730;28;20047;-63
2023/07/12 09:15:07;;;;;;;12.95;1.25;;;;;;;24.51;66.57;99271.81;5095992;28;20060;-63
2023/07/12 09:17:43;;;;;;;1.33;1.05;;;;;;;24.45;67.45;99277.41;5096287;28;20135;-62
2023/07/12 09:20:26;;;;;;;1.33;1.23;;;;;;;24.44;68.68;99291.41;5096407;28;20044;-61
2023/07/12 09:22:56;;;;;;;1.98;1.10;;;;;;;24.38;68.25;99297.00;5095858;28;20044;-62
2023/07/12 09:25:27;;;;;;;1.05;0.95;;;;;;;24.37;67.54;99278.84;5095732;28;20044;-62
2023/07/12 09:27:56;;;;;;;1.45;1.15;;;;;;;24.38;67.85;99285.72;5095916;28;20109;-62
2023/07/12 09:30:29;;;;;;;1.08;0.95;;;;;;;24.38;67.86;99285.72;5096310;28;20048;-63
2023/07/12 09:33:00;;;;;;;2.05;1.08;;;;;;;24.40;67.29;99281.28;5095711;28;20047;-62
2023/07/12 09:35:37;;;;;;;3.20;1.30;;;;;;;24.51;67.52;99281.41;5095078;28;20040;-62
2023/07/12 09:38:13;;;;;;;1.20;1.05;;;;;;;24.62;67.20;99278.94;5095635;28;20043;-62
2023/07/12 09:40:45;;;;;;;3.28;1.05;;;;;;;24.70;66.92;99281.91;5095791;28;20052;-62
2023/07/12 09:43:18;;;;;;;1.23;1.13;;;;;;;24.76;66.59;99281.53;5111103;28;20082;-62
2023/07/12 09:45:57;;;;;;;2.10;0.90;;;;;;;24.83;65.62;99272.38;5115254;28;20052;-62
2023/07/12 09:48:46;;;;;;;0.80;0.73;;;;;;;24.99;65.13;99273.03;5116189;28;20580;-62
2023/07/12 09:51:29;;;;;;;1.27;1.10;;;;;;;25.23;64.99;99271.41;5116363;28;20043;-61
2023/07/12 09:54:07;;;;;;;1.65;1.30;;;;;;;25.55;64.20;99273.66;5116036;28;20082;-63
2023/07/12 09:56:42;;;;;;;1.10;0.95;;;;;;;26.04;64.82;99268.44;5104695;27;20042;-62
2023/07/12 09:59:20;;;;;;;1.27;1.17;;;;;;;26.42;64.35;99270.03;5095357;28;20097;-62
2023/07/12 10:01:56;;;;;;;1.08;0.95;;;;;;;26.70;63.06;99268.03;5094540;28;20052;-62
2023/07/12 10:04:36;;;;;;;1.40;1.30;;;;;;;26.87;61.81;99276.38;5095692;28;20484;-63
2023/07/12 10:07:16;;;;;;;1.95;0.98;;;;;;;27.12;61.03;99259.66;5095316;28;20490;-62
2023/07/12 10:09:49;;;;;;;0.95;0.88;;;;;;;27.23;59.92;99259.69;5095361;28;20059;-61
2023/07/12 10:12:25;;;;;;;1.45;1.05;;;;;;;27.41;59.23;99245.19;5094252;28;20105;-61
2023/07/12 10:14:55;;;;;;;1.05;0.80;;;;;;;27.50;57.63;99247.09;5095103;28;20149;-61
2023/07/12 10:17:33;;;;;;;1.05;0.95;;;;;;;27.63;56.65;99244.38;5095973;28;20492;-63
2023/07/12 10:20:04;;;;;;;1.15;0.98;;;;;;;27.68;55.66;99231.75;5095304;28;20036;-63
2023/07/12 10:22:39;;;;;;;1.00;0.90;;;;;;;27.57;55.62;99235.19;5095034;28;20509;-62
2023/07/12 10:25:20;;;;;;;0.93;0.68;;;;;;;27.68;55.73;99208.97;5094645;28;20051;-62
2023/07/12 10:27:56;;;;;;;0.63;0.63;;;;;;;27.67;55.29;99241.41;5094756;28;20089;-61
2023/07/12 10:30:27;;;;;;;0.68;0.63;;;;;;;27.72;55.20;99234.00;5094908;28;20210;-62
2023/07/12 10:33:01;;;;;;;1.02;0.93;;;;;;;27.73;55.62;99240.94;5107601;28;20489;-63
2023/07/12 10:35:42;;;;;;;4.93;1.25;;;;;;;27.61;55.71;99256.78;5115217;28;20074;-62
2023/07/12 10:38:17;;;;;;;0.82;0.82;;;;;;;27.57;56.73;99245.69;5101272;28;20055;-62
2023/07/12 10:40:53;;;;;;;1.50;1.25;;;;;;;27.66;57.48;99245.00;5094620;28;20036;-62
2023/07/12 10:43:29;;;;;;;1.90;1.42;;;;;;;27.85;57.39;99232.09;5094730;28;20056;-63
2023/07/12 10:46:04;;;;;;;3.85;1.15;;;;;;;27.91;56.84;99238.63;5093757;28;20127;-62
2023/07/12 10:48:34;;;;;;;2.35;1.65;;;;;;;27.97;56.90;99243.41;5094659;28;20489;-62
2023/07/12 10:51:19;;;;;;;1.33;1.00;;;;;;;27.91;56.69;99228.97;5095122;28;20067;-62
2023/07/12 10:53:51;;;;;;;1.75;1.30;;;;;;;27.93;56.38;99226.22;5094366;28;20119;-62
2023/07/12 10:56:26;;;;;;;1.08;0.98;;;;;;;27.93;56.20;99226.22;5094492;28;20052;-62
2023/07/12 10:58:59;;;;;;;2.35;1.38;;;;;;;27.86;55.76;99225.88;5094664;28;20040;-62
2023/07/12 11:01:54;;;;;;;0.80;0.80;;;;;;;27.84;55.36;99227.78;5094682;28;20052;-62
2023/07/12 11:04:35;;;;;;;1.30;1.08;;;;;;;28.13;55.27;99237.81;5092323;28;20076;-63
2023/07/12 11:07:37;;;;;;;1.23;1.05;;;;;;;28.44;55.21;99226.50;5094249;28;20052;-62
2023/07/12 11:10:25;;;;;;;0.55;0.55;;;;;;;28.58;53.20;99231.47;5094210;28;20059;-62
2023/07/12 11:13:09;;;;;;;2.00;0.65;;;;;;;28.64;52.13;99231.00;5093978;28;20046;-62
2023/07/12 11:15:52;;;;;;;1.88;1.33;;;;;;;28.79;51.19;99216.63;5094104;28;20055;-62
2023/07/12 11:18:37;;;;;;;1.38;0.70;;;;;;;28.96;50.84;99216.03;5093582;28;20051;-62
2023/07/12 11:21:08;;;;;;;2.08;1.10;;;;;;;28.92;50.59;99216.41;5093839;28;20048;-61
2023/07/12 11:23:49;;;;;;;0.68;0.68;;;;;;;28.79;50.79;99227.13;5093889;28;20062;-61
2023/07/12 11:26:25;;;;;;;0.82;0.80;;;;;;;28.82;50.51;99221.59;5093949;28;20511;-62
2023/07/12 11:29:28;;;;;;;1.17;1.08;;;;;;;28.95;50.54;99222.25;5094178;28;20044;-60
2023/07/12 11:32:07;;;;;;;0.98;0.73;;;;;;;29.15;50.59;99216.16;5093632;28;20044;-64
2023/07/12 11:34:38;;;;;;;;;;;;;;;29.25;50.15;99212.78;5098117;28;20062;-63
2023/07/12 11:37:18;;;;;;;0.63;0.63;;;;;;;29.27;50.08;99210.88;5114494;28;19951;-63
2023/07/12 11:39:47;;;;;;;1.23;1.13;;;;;;;29.35;49.75;99213.66;5109530;28;20468;-63
2023/07/12 11:42:25;;;;;;;3.53;1.20;;;;;;;29.47;49.40;99207.34;5096459;28;20705;-62
2023/07/12 11:45:03;;;;;;;1.00;0.93;;;;;;;29.66;49.45;99202.16;5114164;28;20048;-61
2023/07/12 11:47:35;;;;;;;0.80;0.80;;;;;;;29.78;48.88;99201.13;5114180;28;20051;-62
2023/07/12 11:50:09;;;;;;;1.40;1.13;;;;;;;29.90;48.98;99200.06;5114061;28;20043;-62
2023/07/12 11:52:38;;;;;;;1.10;0.98;;;;;;;29.92;48.68;99203.41;5110807;28;20063;-63
2023/07/12 11:55:15;;;;;;;1.42;1.15;;;;;;;29.84;48.48;99197.97;5092952;28;20032;-62